sensor_id;sensor_type;location;lat;lon;timestamp;pressure;altitude;pressure_sealevel;temperature;humidity
32131;BME280;18639;50.716;7.086;2023-03-19T00:01:56;100001.31;;;11.75;100.00
32131;BME280;18639;50.716;7.086;2023-03-19T00:04:23;100014.63;;;11.82;100.00
32131;BME280;18639;50.716;7.086;2023-03-19T00:06:49;100007.81;;;11.81;100.00
32131;BME280;18639;50.716;7.086;2023-03-19T00:09:15;100010.41;;;11.81;100.00
32131;BME280;18639;50.716;7.086;2023-03-19T00:11:41;99996.69;;;11.68;100.00
32131;BME280;18639;50.716;7.086;2023-03-19T00:14:06;99963.47;;;11.51;100.00
32131;BME280;18639;50.716;7.086;2023-03-19T00:16:32;100012.50;;;11.76;100.00
32131;BME280;18639;50.716;7.086;2023-03-19T00:18:57;99997.63;;;11.67;100.00
32131;BME280;18639;50.716;7.086;2023-03-19T00:21:23;99996.69;;;11.68;100.00
32131;BME280;18639;50.716;7.086;2023-03-19T00:23:48;99968.75;;;11.49;100.00
32131;BME280;18639;50.716;7.086;2023-03-19T00:26:13;99911.91;;;11.14;100.00
32131;BME280;18639;50.716;7.086;2023-03-19T00:28:38;100007.06;;;11.68;100.00
32131;BME280;18639;50.716;7.086;2023-03-19T00:31:08;100006.34;;;11.66;100.00
32131;BME280;18639;50.716;7.086;2023-03-19T00:33:34;100011.75;;;11.63;100.00
32131;BME280;18639;50.716;7.086;2023-03-19T00:36:00;99997.56;;;11.45;100.00
32131;BME280;18639;50.716;7.086;2023-03-19T00:38:25;100005.72;;;11.51;100.00
32131;BME280;18639;50.716;7.086;2023-03-19T00:40:50;100014.06;;;11.55;100.00
32131;BME280;18639;50.716;7.086;2023-03-19T00:43:16;99975.31;;;11.31;100.00
32131;BME280;18639;50.716;7.086;2023-03-19T00:45:41;99994.59;;;11.38;100.00
32131;BME280;18639;50.716;7.086;2023-03-19T00:48:06;99991.44;;;11.34;100.00
32131;BME280;18639;50.716;7.086;2023-03-19T00:50:32;99983.53;;;11.25;100.00
32131;BME280;18639;50.716;7.086;2023-03-19T00:52:57;99989.78;;;11.33;100.00
32131;BME280;18639;50.716;7.086;2023-03-19T00:55:22;100002.38;;;11.38;100.00
32131;BME280;18639;50.716;7.086;2023-03-19T00:57:49;99930.25;;;10.87;100.00
32131;BME280;18639;50.716;7.086;2023-03-19T01:00:16;99988.59;;;11.26;100.00
32131;BME280;18639;50.716;7.086;2023-03-19T01:02:41;99993.53;;;11.29;100.00
32131;BME280;18639;50.716;7.086;2023-03-19T01:05:07;99998.81;;;11.28;100.00
32131;BME280;18639;50.716;7.086;2023-03-19T01:07:33;99998.94;;;11.26;100.00
32131;BME280;18639;50.716;7.086;2023-03-19T01:09:58;99997.38;;;11.24;100.00
32131;BME280;18639;50.716;7.086;2023-03-19T01:12:24;99946.34;;;10.91;100.00
32131;BME280;18639;50.716;7.086;2023-03-19T01:14:49;100001.84;;;11.22;100.00
32131;BME280;18639;50.716;7.086;2023-03-19T01:17:14;99960.44;;;10.87;100.00
32131;BME280;18639;50.716;7.086;2023-03-19T01:19:39;99962.44;;;10.83;100.00
32131;BME280;18639;50.716;7.086;2023-03-19T01:22:05;99967.97;;;10.90;100.00
32131;BME280;18639;50.716;7.086;2023-03-19T01:24:31;99982.50;;;11.04;100.00
32131;BME280;18639;50.716;7.086;2023-03-19T01:26:57;100017.00;;;11.15;100.00
32131;BME280;18639;50.716;7.086;2023-03-19T01:29:22;100013.91;;;11.10;100.00
32131;BME280;18639;50.716;7.086;2023-03-19T01:31:47;100010.38;;;11.11;100.00
32131;BME280;18639;50.716;7.086;2023-03-19T01:34:13;99989.16;;;10.95;100.00
32131;BME280;18639;50.716;7.086;2023-03-19T01:36:38;99995.97;;;10.96;100.00
32131;BME280;18639;50.716;7.086;2023-03-19T01:39:04;100008.19;;;10.94;100.00
32131;BME280;18639;50.716;7.086;2023-03-19T01:41:29;100004.28;;;10.88;100.00
32131;BME280;18639;50.716;7.086;2023-03-19T01:43:54;99983.16;;;10.71;100.00
32131;BME280;18639;50.716;7.086;2023-03-19T01:46:27;100004.81;;;10.81;100.00
32131;BME280;18639;50.716;7.086;2023-03-19T01:48:57;100001.00;;;10.74;100.00
32131;BME280;18639;50.716;7.086;2023-03-19T01:51:27;99998.75;;;10.69;100.00
32131;BME280;18639;50.716;7.086;2023-03-19T01:53:59;100001.47;;;10.68;100.00
32131;BME280;18639;50.716;7.086;2023-03-19T01:56:29;100010.63;;;10.72;100.00
32131;BME280;18639;50.716;7.086;2023-03-19T01:59:01;99999.16;;;10.63;100.00
32131;BME280;18639;50.716;7.086;2023-03-19T02:01:29;99998.56;;;10.60;100.00
32131;BME280;18639;50.716;7.086;2023-03-19T02:03:56;99975.16;;;10.37;100.00
32131;BME280;18639;50.716;7.086;2023-03-19T02:06:23;99976.31;;;10.33;100.00
32131;BME280;18639;50.716;7.086;2023-03-19T02:08:49;100002.84;;;10.48;100.00
32131;BME280;18639;50.716;7.086;2023-03-19T02:11:15;99996.06;;;10.34;100.00
32131;BME280;18639;50.716;7.086;2023-03-19T02:13:42;100002.75;;;10.37;100.00
32131;BME280;18639;50.716;7.086;2023-03-19T02:16:07;99991.31;;;10.28;100.00
32131;BME280;18639;50.716;7.086;2023-03-19T02:18:34;100010.63;;;10.35;100.00
32131;BME280;18639;50.716;7.086;2023-03-19T02:21:20;100012.47;;;10.33;100.00
32131;BME280;18639;50.716;7.086;2023-03-19T02:24:02;99998.53;;;10.23;100.00
32131;BME280;18639;50.716;7.086;2023-03-19T02:26:30;99992.88;;;10.18;100.00
32131;BME280;18639;50.716;7.086;2023-03-19T02:28:56;99991.72;;;10.22;100.00
32131;BME280;18639;50.716;7.086;2023-03-19T02:31:22;100005.66;;;10.32;100.00
32131;BME280;18639;50.716;7.086;2023-03-19T02:34:02;99998.84;;;10.31;100.00
32131;BME280;18639;50.716;7.086;2023-03-19T02:36:40;99986.25;;;10.27;100.00
32131;BME280;18639;50.716;7.086;2023-03-19T02:39:11;99981.91;;;10.27;100.00
32131;BME280;18639;50.716;7.086;2023-03-19T02:41:39;99998.09;;;10.42;100.00
32131;BME280;18639;50.716;7.086;2023-03-19T02:44:06;99989.53;;;10.41;100.00
32131;BME280;18639;50.716;7.086;2023-03-19T02:46:34;99981.91;;;10.40;100.00
32131;BME280;18639;50.716;7.086;2023-03-19T02:48:59;99989.72;;;10.51;100.00
32131;BME280;18639;50.716;7.086;2023-03-19T02:51:24;99939.97;;;10.24;100.00
32131;BME280;18639;50.716;7.086;2023-03-19T02:53:50;99995.28;;;10.58;100.00
32131;BME280;18639;50.716;7.086;2023-03-19T02:56:15;99964.75;;;10.39;100.00
32131;BME280;18639;50.716;7.086;2023-03-19T02:58:40;99994.34;;;10.59;100.00
32131;BME280;18639;50.716;7.086;2023-03-19T03:01:06;99960.16;;;10.42;100.00
32131;BME280;18639;50.716;7.086;2023-03-19T03:03:31;99948.22;;;10.41;100.00
32131;BME280;18639;50.716;7.086;2023-03-19T03:05:56;99974.81;;;10.54;100.00
32131;BME280;18639;50.716;7.086;2023-03-19T03:08:22;99996.78;;;10.73;100.00
32131;BME280;18639;50.716;7.086;2023-03-19T03:10:47;99977.47;;;10.66;100.00
32131;BME280;18639;50.716;7.086;2023-03-19T03:13:12;99982.53;;;10.67;100.00
32131;BME280;18639;50.716;7.086;2023-03-19T03:15:38;99995.19;;;10.83;100.00
32131;BME280;18639;50.716;7.086;2023-03-19T03:18:04;99997.03;;;10.93;100.00
32131;BME280;18639;50.716;7.086;2023-03-19T03:20:30;99972.63;;;10.85;100.00
32131;BME280;18639;50.716;7.086;2023-03-19T03:22:55;99988.69;;;11.01;100.00
32131;BME280;18639;50.716;7.086;2023-03-19T03:25:20;99990.63;;;11.10;100.00
32131;BME280;18639;50.716;7.086;2023-03-19T03:27:46;99992.72;;;11.05;100.00
32131;BME280;18639;50.716;7.086;2023-03-19T03:30:12;99997.56;;;11.10;100.00
32131;BME280;18639;50.716;7.086;2023-03-19T03:32:38;100002.59;;;11.11;100.00
32131;BME280;18639;50.716;7.086;2023-03-19T03:35:05;99989.91;;;11.08;100.00
32131;BME280;18639;50.716;7.086;2023-03-19T03:37:31;99981.44;;;11.06;100.00
32131;BME280;18639;50.716;7.086;2023-03-19T03:39:56;99975.78;;;11.01;100.00
32131;BME280;18639;50.716;7.086;2023-03-19T03:42:22;99995.25;;;11.18;100.00
32131;BME280;18639;50.716;7.086;2023-03-19T03:44:47;99991.56;;;11.09;100.00
32131;BME280;18639;50.716;7.086;2023-03-19T03:47:13;100015.00;;;11.19;100.00
32131;BME280;18639;50.716;7.086;2023-03-19T03:49:38;100010.66;;;11.19;100.00
32131;BME280;18639;50.716;7.086;2023-03-19T03:52:04;99971.75;;;10.97;100.00
32131;BME280;18639;50.716;7.086;2023-03-19T03:54:29;99987.31;;;11.08;100.00
32131;BME280;18639;50.716;7.086;2023-03-19T03:56:54;99980.13;;;11.01;100.00
32131;BME280;18639;50.716;7.086;2023-03-19T03:59:20;100000.66;;;11.15;100.00
32131;BME280;18639;50.716;7.086;2023-03-19T04:01:45;99997.22;;;11.14;100.00
32131;BME280;18639;50.716;7.086;2023-03-19T04:04:11;100017.59;;;11.19;100.00
32131;BME280;18639;50.716;7.086;2023-03-19T04:06:36;100007.28;;;11.06;100.00
32131;BME280;18639;50.716;7.086;2023-03-19T04:09:01;100018.84;;;11.13;100.00
32131;BME280;18639;50.716;7.086;2023-03-19T04:11:27;100023.44;;;11.10;100.00
32131;BME280;18639;50.716;7.086;2023-03-19T04:13:54;100038.94;;;11.10;100.00
32131;BME280;18639;50.716;7.086;2023-03-19T04:16:22;100024.69;;;11.04;100.00
32131;BME280;18639;50.716;7.086;2023-03-19T04:18:47;100042.69;;;11.06;100.00
32131;BME280;18639;50.716;7.086;2023-03-19T04:21:12;100037.63;;;11.04;100.00
32131;BME280;18639;50.716;7.086;2023-03-19T04:23:37;100040.22;;;11.04;100.00
32131;BME280;18639;50.716;7.086;2023-03-19T04:26:05;100047.47;;;10.99;100.00
32131;BME280;18639;50.716;7.086;2023-03-19T04:28:31;100053.84;;;11.06;100.00
32131;BME280;18639;50.716;7.086;2023-03-19T04:30:59;100030.72;;;10.92;100.00
32131;BME280;18639;50.716;7.086;2023-03-19T04:33:24;100034.03;;;10.94;100.00
32131;BME280;18639;50.716;7.086;2023-03-19T04:35:50;100044.25;;;10.95;100.00
32131;BME280;18639;50.716;7.086;2023-03-19T04:38:15;100009.59;;;10.74;100.00
32131;BME280;18639;50.716;7.086;2023-03-19T04:40:41;100038.38;;;10.93;100.00
32131;BME280;18639;50.716;7.086;2023-03-19T04:43:07;100014.66;;;10.76;100.00
32131;BME280;18639;50.716;7.086;2023-03-19T04:45:32;100025.16;;;10.85;100.00
32131;BME280;18639;50.716;7.086;2023-03-19T04:47:57;100010.63;;;10.72;100.00
32131;BME280;18639;50.716;7.086;2023-03-19T04:50:23;100053.41;;;10.88;100.00
32131;BME280;18639;50.716;7.086;2023-03-19T04:52:48;100055.19;;;10.75;100.00
32131;BME280;18639;50.716;7.086;2023-03-19T04:55:13;100049.91;;;10.77;100.00
32131;BME280;18639;50.716;7.086;2023-03-19T04:57:39;100059.31;;;10.78;100.00
32131;BME280;18639;50.716;7.086;2023-03-19T05:00:05;100053.53;;;10.74;100.00
32131;BME280;18639;50.716;7.086;2023-03-19T05:02:31;100052.50;;;10.64;100.00
32131;BME280;18639;50.716;7.086;2023-03-19T05:04:56;100067.81;;;10.67;100.00
32131;BME280;18639;50.716;7.086;2023-03-19T05:07:21;100036.22;;;10.38;100.00
32131;BME280;18639;50.716;7.086;2023-03-19T05:09:47;100059.06;;;10.44;100.00
32131;BME280;18639;50.716;7.086;2023-03-19T05:12:12;100058.56;;;10.39;100.00
32131;BME280;18639;50.716;7.086;2023-03-19T05:14:38;100033.97;;;10.21;100.00
32131;BME280;18639;50.716;7.086;2023-03-19T05:17:03;100069.28;;;10.33;100.00
32131;BME280;18639;50.716;7.086;2023-03-19T05:19:28;100032.41;;;10.06;100.00
32131;BME280;18639;50.716;7.086;2023-03-19T05:21:54;100049.13;;;10.13;100.00
32131;BME280;18639;50.716;7.086;2023-03-19T05:24:21;100049.75;;;10.04;100.00
32131;BME280;18639;50.716;7.086;2023-03-19T05:26:47;100052.13;;;10.07;100.00
32131;BME280;18639;50.716;7.086;2023-03-19T05:29:12;100004.63;;;9.71;100.00
32131;BME280;18639;50.716;7.086;2023-03-19T05:31:38;100067.53;;;10.08;100.00
32131;BME280;18639;50.716;7.086;2023-03-19T05:34:04;99988.91;;;9.62;100.00
32131;BME280;18639;50.716;7.086;2023-03-19T05:36:29;100071.84;;;10.08;100.00
32131;BME280;18639;50.716;7.086;2023-03-19T05:38:55;100074.03;;;10.14;100.00
32131;BME280;18639;50.716;7.086;2023-03-19T05:41:20;100062.03;;;10.13;100.00
32131;BME280;18639;50.716;7.086;2023-03-19T05:43:45;100064.53;;;10.14;100.00
32131;BME280;18639;50.716;7.086;2023-03-19T05:46:11;100064.03;;;10.22;100.00
32131;BME280;18639;50.716;7.086;2023-03-19T05:48:36;100068.19;;;10.25;100.00
32131;BME280;18639;50.716;7.086;2023-03-19T05:51:02;100055.44;;;10.22;100.00
32131;BME280;18639;50.716;7.086;2023-03-19T05:53:27;100076.84;;;10.36;100.00
32131;BME280;18639;50.716;7.086;2023-03-19T05:55:52;100066.72;;;10.33;100.00
32131;BME280;18639;50.716;7.086;2023-03-19T05:58:18;100068.88;;;10.39;100.00
32131;BME280;18639;50.716;7.086;2023-03-19T06:00:43;100062.28;;;10.35;100.00
32131;BME280;18639;50.716;7.086;2023-03-19T06:03:08;100089.31;;;10.55;100.00
32131;BME280;18639;50.716;7.086;2023-03-19T06:05:34;100083.56;;;10.51;100.00
32131;BME280;18639;50.716;7.086;2023-03-19T06:07:59;100093.75;;;10.66;100.00
32131;BME280;18639;50.716;7.086;2023-03-19T06:10:24;100096.13;;;10.69;100.00
32131;BME280;18639;50.716;7.086;2023-03-19T06:12:50;100088.25;;;10.70;100.00
32131;BME280;18639;50.716;7.086;2023-03-19T06:15:15;100094.88;;;10.74;100.00
32131;BME280;18639;50.716;7.086;2023-03-19T06:17:41;100102.31;;;10.79;100.00
32131;BME280;18639;50.716;7.086;2023-03-19T06:20:09;100111.41;;;10.84;100.00
32131;BME280;18639;50.716;7.086;2023-03-19T06:22:35;100112.94;;;10.87;100.00
32131;BME280;18639;50.716;7.086;2023-03-19T06:25:00;100111.19;;;10.87;100.00
32131;BME280;18639;50.716;7.086;2023-03-19T06:27:26;100099.41;;;10.83;100.00
32131;BME280;18639;50.716;7.086;2023-03-19T06:29:51;100084.34;;;10.77;100.00
32131;BME280;18639;50.716;7.086;2023-03-19T06:32:16;100106.44;;;10.94;100.00
32131;BME280;18639;50.716;7.086;2023-03-19T06:34:42;100111.19;;;11.00;100.00
32131;BME280;18639;50.716;7.086;2023-03-19T06:37:07;100095.06;;;10.84;100.00
32131;BME280;18639;50.716;7.086;2023-03-19T06:39:32;100122.03;;;11.05;100.00
32131;BME280;18639;50.716;7.086;2023-03-19T06:41:59;100071.50;;;10.76;100.00
32131;BME280;18639;50.716;7.086;2023-03-19T06:44:24;100122.63;;;11.09;100.00
32131;BME280;18639;50.716;7.086;2023-03-19T06:46:50;100127.47;;;11.13;100.00
32131;BME280;18639;50.716;7.086;2023-03-19T06:49:15;100125.59;;;11.15;100.00
32131;BME280;18639;50.716;7.086;2023-03-19T06:51:41;100117.44;;;11.09;100.00
32131;BME280;18639;50.716;7.086;2023-03-19T06:54:06;100138.81;;;11.23;100.00
32131;BME280;18639;50.716;7.086;2023-03-19T06:56:32;100140.25;;;11.27;100.00
32131;BME280;18639;50.716;7.086;2023-03-19T06:58:57;100135.19;;;11.26;100.00
32131;BME280;18639;50.716;7.086;2023-03-19T07:01:22;100120.22;;;11.18;100.00
32131;BME280;18639;50.716;7.086;2023-03-19T07:03:48;100135.06;;;11.27;100.00
32131;BME280;18639;50.716;7.086;2023-03-19T07:06:13;100149.53;;;11.43;100.00
32131;BME280;18639;50.716;7.086;2023-03-19T07:08:38;100154.03;;;11.52;100.00
32131;BME280;18639;50.716;7.086;2023-03-19T07:11:05;100155.47;;;11.56;100.00
32131;BME280;18639;50.716;7.086;2023-03-19T07:13:31;100157.94;;;11.57;100.00
32131;BME280;18639;50.716;7.086;2023-03-19T07:15:57;100151.34;;;11.53;100.00
32131;BME280;18639;50.716;7.086;2023-03-19T07:18:22;100166.09;;;11.64;100.00
32131;BME280;18639;50.716;7.086;2023-03-19T07:20:47;100167.13;;;11.61;100.00
32131;BME280;18639;50.716;7.086;2023-03-19T07:23:13;100174.56;;;11.66;100.00
32131;BME280;18639;50.716;7.086;2023-03-19T07:25:38;100169.88;;;11.71;100.00
32131;BME280;18639;50.716;7.086;2023-03-19T07:28:03;100173.00;;;11.76;100.00
32131;BME280;18639;50.716;7.086;2023-03-19T07:30:29;100173.28;;;11.84;100.00
32131;BME280;18639;50.716;7.086;2023-03-19T07:32:55;100124.41;;;11.56;100.00
32131;BME280;18639;50.716;7.086;2023-03-19T07:35:20;100173.88;;;11.88;100.00
32131;BME280;18639;50.716;7.086;2023-03-19T07:37:46;100174.16;;;11.96;100.00
32131;BME280;18639;50.716;7.086;2023-03-19T07:40:11;100170.75;;;11.95;100.00
32131;BME280;18639;50.716;7.086;2023-03-19T07:42:37;100164.28;;;12.01;100.00
32131;BME280;18639;50.716;7.086;2023-03-19T07:45:03;100165.00;;;12.03;100.00
32131;BME280;18639;50.716;7.086;2023-03-19T07:47:29;100166.09;;;12.11;100.00
32131;BME280;18639;50.716;7.086;2023-03-19T07:49:55;100156.88;;;12.07;100.00
32131;BME280;18639;50.716;7.086;2023-03-19T07:52:21;100161.84;;;12.10;100.00
32131;BME280;18639;50.716;7.086;2023-03-19T07:54:46;100126.25;;;11.90;100.00
32131;BME280;18639;50.716;7.086;2023-03-19T07:57:11;100148.66;;;12.13;100.00
32131;BME280;18639;50.716;7.086;2023-03-19T07:59:37;100157.88;;;12.17;100.00
32131;BME280;18639;50.716;7.086;2023-03-19T08:02:02;100144.19;;;12.15;100.00
32131;BME280;18639;50.716;7.086;2023-03-19T08:04:27;100156.34;;;12.26;100.00
32131;BME280;18639;50.716;7.086;2023-03-19T08:06:53;100168.63;;;12.35;100.00
32131;BME280;18639;50.716;7.086;2023-03-19T08:09:18;100175.34;;;12.38;100.00
32131;BME280;18639;50.716;7.086;2023-03-19T08:11:43;100155.44;;;12.38;100.00
32131;BME280;18639;50.716;7.086;2023-03-19T08:14:08;100130.94;;;12.31;100.00
32131;BME280;18639;50.716;7.086;2023-03-19T08:16:34;100162.88;;;12.43;100.00
32131;BME280;18639;50.716;7.086;2023-03-19T08:18:59;100177.03;;;12.50;100.00
32131;BME280;18639;50.716;7.086;2023-03-19T08:21:24;100171.59;;;12.53;100.00
32131;BME280;18639;50.716;7.086;2023-03-19T08:23:51;100154.19;;;12.55;100.00
32131;BME280;18639;50.716;7.086;2023-03-19T08:26:17;100148.28;;;12.53;100.00
32131;BME280;18639;50.716;7.086;2023-03-19T08:28:42;100176.94;;;12.74;100.00
32131;BME280;18639;50.716;7.086;2023-03-19T08:31:08;100178.94;;;12.81;100.00
32131;BME280;18639;50.716;7.086;2023-03-19T08:33:34;100171.16;;;12.81;100.00
32131;BME280;18639;50.716;7.086;2023-03-19T08:36:18;100169.97;;;12.85;100.00
32131;BME280;18639;50.716;7.086;2023-03-19T08:38:43;100184.25;;;12.91;100.00
32131;BME280;18639;50.716;7.086;2023-03-19T08:41:09;100168.09;;;12.76;100.00
32131;BME280;18639;50.716;7.086;2023-03-19T08:43:35;100184.13;;;12.81;100.00
32131;BME280;18639;50.716;7.086;2023-03-19T08:46:02;100192.84;;;12.80;100.00
32131;BME280;18639;50.716;7.086;2023-03-19T08:48:28;100182.00;;;12.64;100.00
32131;BME280;18639;50.716;7.086;2023-03-19T08:50:54;100192.00;;;12.57;100.00
32131;BME280;18639;50.716;7.086;2023-03-19T08:53:21;100186.09;;;12.55;100.00
32131;BME280;18639;50.716;7.086;2023-03-19T08:55:53;100185.88;;;12.58;100.00
32131;BME280;18639;50.716;7.086;2023-03-19T08:58:19;100201.31;;;12.60;100.00
32131;BME280;18639;50.716;7.086;2023-03-19T09:00:45;100170.38;;;12.35;100.00
32131;BME280;18639;50.716;7.086;2023-03-19T09:03:11;100181.00;;;12.43;100.00
32131;BME280;18639;50.716;7.086;2023-03-19T09:05:36;100191.97;;;12.46;100.00
32131;BME280;18639;50.716;7.086;2023-03-19T09:08:01;100181.56;;;12.35;100.00
32131;BME280;18639;50.716;7.086;2023-03-19T09:10:27;100194.66;;;12.45;100.00
32131;BME280;18639;50.716;7.086;2023-03-19T09:12:52;100194.66;;;12.45;100.00
32131;BME280;18639;50.716;7.086;2023-03-19T09:15:17;100204.47;;;12.52;100.00
32131;BME280;18639;50.716;7.086;2023-03-19T09:17:43;100205.41;;;12.51;100.00
32131;BME280;18639;50.716;7.086;2023-03-19T09:20:09;100197.50;;;12.42;100.00
32131;BME280;18639;50.716;7.086;2023-03-19T09:22:34;100205.53;;;12.50;100.00
32131;BME280;18639;50.716;7.086;2023-03-19T09:25:00;100206.59;;;12.47;100.00
32131;BME280;18639;50.716;7.086;2023-03-19T09:27:25;100214.94;;;12.51;100.00
32131;BME280;18639;50.716;7.086;2023-03-19T09:29:51;100224.38;;;12.52;100.00
32131;BME280;18639;50.716;7.086;2023-03-19T09:32:16;100213.81;;;12.55;100.00
32131;BME280;18639;50.716;7.086;2023-03-19T09:34:41;100210.47;;;12.53;100.00
32131;BME280;18639;50.716;7.086;2023-03-19T09:37:07;100219.69;;;12.68;100.00
32131;BME280;18639;50.716;7.086;2023-03-19T09:39:32;100215.94;;;12.72;100.00
32131;BME280;18639;50.716;7.086;2023-03-19T09:42:07;100227.25;;;12.82;100.00
32131;BME280;18639;50.716;7.086;2023-03-19T09:44:38;100210.63;;;12.62;100.00
32131;BME280;18639;50.716;7.086;2023-03-19T09:47:25;100227.16;;;12.84;100.00
32131;BME280;18639;50.716;7.086;2023-03-19T09:49:52;100232.09;;;12.76;100.00
32131;BME280;18639;50.716;7.086;2023-03-19T09:52:30;100229.03;;;12.82;100.00
32131;BME280;18639;50.716;7.086;2023-03-19T09:55:04;100232.69;;;12.90;100.00
32131;BME280;18639;50.716;7.086;2023-03-19T09:57:35;100240.03;;;12.96;100.00
32131;BME280;18639;50.716;7.086;2023-03-19T10:00:04;100232.44;;;12.93;100.00
32131;BME280;18639;50.716;7.086;2023-03-19T10:05:10;100232.25;;;12.96;100.00
32131;BME280;18639;50.716;7.086;2023-03-19T10:18:04;100228.00;;;13.06;100.00
32131;BME280;18639;50.716;7.086;2023-03-19T10:23:34;100245.47;;;13.16;100.00
32131;BME280;18639;50.716;7.086;2023-03-19T10:26:04;100243.13;;;13.24;100.00
32131;BME280;18639;50.716;7.086;2023-03-19T10:28:29;100238.41;;;13.18;100.00
32131;BME280;18639;50.716;7.086;2023-03-19T10:36:21;100240.03;;;13.41;100.00
32131;BME280;18639;50.716;7.086;2023-03-19T10:38:49;100209.03;;;13.28;100.00
32131;BME280;18639;50.716;7.086;2023-03-19T10:44:01;100243.94;;;13.89;100.00
32131;BME280;18639;50.716;7.086;2023-03-19T10:46:26;100242.94;;;14.13;100.00
32131;BME280;18639;50.716;7.086;2023-03-19T10:48:52;100243.34;;;14.29;100.00
32131;BME280;18639;50.716;7.086;2023-03-19T10:51:24;100226.09;;;14.28;100.00
32131;BME280;18639;50.716;7.086;2023-03-19T10:53:52;100244.75;;;14.33;100.00
32131;BME280;18639;50.716;7.086;2023-03-19T10:56:27;100246.25;;;14.15;100.00
32131;BME280;18639;50.716;7.086;2023-03-19T10:59:04;100241.81;;;13.95;100.00
32131;BME280;18639;50.716;7.086;2023-03-19T11:01:37;100243.06;;;13.68;100.00
32131;BME280;18639;50.716;7.086;2023-03-19T11:04:18;100252.66;;;13.57;100.00
32131;BME280;18639;50.716;7.086;2023-03-19T11:06:48;100238.88;;;13.45;100.00
32131;BME280;18639;50.716;7.086;2023-03-19T11:09:22;100220.47;;;13.26;100.00
32131;BME280;18639;50.716;7.086;2023-03-19T11:11:50;100244.06;;;13.34;100.00
32131;BME280;18639;50.716;7.086;2023-03-19T11:14:24;100240.63;;;13.44;100.00
32131;BME280;18639;50.716;7.086;2023-03-19T11:16:57;100251.00;;;13.56;100.00
32131;BME280;18639;50.716;7.086;2023-03-19T11:19:28;100243.91;;;13.58;100.00
32131;BME280;18639;50.716;7.086;2023-03-19T11:24:41;100249.53;;;13.74;100.00
32131;BME280;18639;50.716;7.086;2023-03-19T11:27:09;100243.97;;;13.78;100.00
32131;BME280;18639;50.716;7.086;2023-03-19T11:29:39;100245.88;;;13.76;100.00
32131;BME280;18639;50.716;7.086;2023-03-19T11:37:57;100242.03;;;14.03;100.00
32131;BME280;18639;50.716;7.086;2023-03-19T11:40:44;100231.34;;;14.17;100.00
32131;BME280;18639;50.716;7.086;2023-03-19T11:43:28;100231.28;;;14.28;100.00
32131;BME280;18639;50.716;7.086;2023-03-19T11:46:19;100224.38;;;14.49;100.00
32131;BME280;18639;50.716;7.086;2023-03-19T11:51:50;100226.25;;;14.89;100.00
32131;BME280;18639;50.716;7.086;2023-03-19T11:54:22;100217.34;;;14.91;100.00
32131;BME280;18639;50.716;7.086;2023-03-19T11:56:59;100220.22;;;14.88;100.00
32131;BME280;18639;50.716;7.086;2023-03-19T11:59:52;100221.72;;;14.91;100.00
32131;BME280;18639;50.716;7.086;2023-03-19T12:02:52;100218.84;;;14.84;100.00
32131;BME280;18639;50.716;7.086;2023-03-19T12:05:30;100222.09;;;14.56;100.00
32131;BME280;18639;50.716;7.086;2023-03-19T12:08:09;100222.84;;;14.67;100.00
32131;BME280;18639;50.716;7.086;2023-03-19T12:16:23;100229.97;;;14.33;100.00
32131;BME280;18639;50.716;7.086;2023-03-19T12:19:10;100223.47;;;14.39;100.00
32131;BME280;18639;50.716;7.086;2023-03-19T12:27:18;100212.53;;;14.24;100.00
32131;BME280;18639;50.716;7.086;2023-03-19T12:35:23;100226.81;;;13.98;100.00
32131;BME280;18639;50.716;7.086;2023-03-19T12:38:12;100217.53;;;13.84;100.00
32131;BME280;18639;50.716;7.086;2023-03-19T12:40:49;100211.00;;;13.90;100.00
32131;BME280;18639;50.716;7.086;2023-03-19T12:43:18;100215.16;;;13.93;100.00
32131;BME280;18639;50.716;7.086;2023-03-19T12:45:51;100216.53;;;13.97;100.00
32131;BME280;18639;50.716;7.086;2023-03-19T12:48:26;100200.50;;;13.91;100.00
32131;BME280;18639;50.716;7.086;2023-03-19T12:50:55;100206.59;;;14.02;100.00
32131;BME280;18639;50.716;7.086;2023-03-19T12:53:42;100210.38;;;14.09;100.00
32131;BME280;18639;50.716;7.086;2023-03-19T12:56:38;100201.19;;;14.25;100.00
32131;BME280;18639;50.716;7.086;2023-03-19T12:59:13;100205.56;;;14.25;100.00
32131;BME280;18639;50.716;7.086;2023-03-19T13:01:46;100197.88;;;14.23;100.00
32131;BME280;18639;50.716;7.086;2023-03-19T13:04:20;100205.63;;;14.34;100.00
32131;BME280;18639;50.716;7.086;2023-03-19T13:07:07;100206.00;;;14.30;100.00
32131;BME280;18639;50.716;7.086;2023-03-19T13:09:47;100203.59;;;14.17;100.00
32131;BME280;18639;50.716;7.086;2023-03-19T13:12:20;100211.72;;;14.24;100.00
32131;BME280;18639;50.716;7.086;2023-03-19T13:14:48;100211.50;;;14.16;100.00
32131;BME280;18639;50.716;7.086;2023-03-19T13:19:51;100209.75;;;14.05;100.00
32131;BME280;18639;50.716;7.086;2023-03-19T13:22:24;100205.31;;;13.96;100.00
32131;BME280;18639;50.716;7.086;2023-03-19T13:24:53;100205.25;;;13.86;100.00
32131;BME280;18639;50.716;7.086;2023-03-19T13:27:50;100205.97;;;13.88;100.00
32131;BME280;18639;50.716;7.086;2023-03-19T13:30:19;100199.53;;;13.61;100.00
32131;BME280;18639;50.716;7.086;2023-03-19T13:33:03;100187.44;;;13.39;100.00
32131;BME280;18639;50.716;7.086;2023-03-19T13:35:44;100218.78;;;13.47;100.00
32131;BME280;18639;50.716;7.086;2023-03-19T13:40:46;100215.88;;;13.29;100.00
32131;BME280;18639;50.716;7.086;2023-03-19T13:45:54;100209.03;;;13.17;100.00
32131;BME280;18639;50.716;7.086;2023-03-19T13:53:39;100209.25;;;13.36;100.00